If you wish to contribute or participate in the discussions about articles you are invited to join SKYbrary as a registered user

 Actions

Mundo Maya International Airport

From SKYbrary Wiki

MGMM
Airport
ICAO: MGMM – IATA: FRS
Summary
Name Mundo Maya International Airport
Region South America and Caribbean
Territory Guatemala GT.gif
Location Santa Elena, Peten Department
Serving Flores
Elevation 117.958 m
387 ft117.958 m
Coordinates 16° 54' 52.78" N, 89° 52' 37.99" W
Runways
Designator Length Width Surface ROPS


METAR
Observation MGMM 181200Z 00000KT CAVOK 23/22 Q1016 A3000 SCT200
Station Melchor de Mencos Airport
Date/Time 18 September 2019 12:00:00
Wind direction
Wind speed 00 kts
Lowest cloud amount scattered clouds
Temperature 23°C
Dew point 22°C
Humidity 94%
QNH 1016 hPa
Weather condition n/a

Mundo Maya International Airport (Spanish: Aeropuerto Internacional Mundo Maya), formerly Flores International Airport, is an international airport located in the suburb of Santa Elena, in the city of Flores, Guatemala.

Climatology

Tropical rainforest climate (Köppen climate classification Af)

Maps

Terrain

Loading map...

Airport Layout

Loading map...


Accidents & Serious Incidents at or in vicinity of MGMM

None on SKYbrary